AAL1087 KTUS-KABQ
Flight info
| Callsign | AAL1087 |
|---|---|
| Flight time | 0h 48m |
| Altitude | 37000 |
| Route | WLDKT4 SSO J104 TMACK/N0452F380 KALSE BRRTO1 |
| Aircraft | A319/M-SDE3FGHIRWY/LB1 |
Departure
| Time | 2026-04-26 17:00 |
|---|---|
| Airport | Tucson International Airport (KTUS) |
Arrival
| Time | 2026-04-26 17:49 |
|---|---|
| Airport | Albuquerque International Sunport (KABQ) |
| Time | Latitude | Longitude | Altitude | Speed | Heading |
|---|---|---|---|---|---|
| 2026-04-26 16:40 | 32.11900 | -110.93655 | 2605 ft | 0 kts | 269° |
| 2026-04-26 16:51 | 32.11900 | -110.93653 | 2605 ft | 2 kts | 269° |
| 2026-04-26 16:52 | 32.11902 | -110.93624 | 2605 ft | 4 kts | 261° |
| 2026-04-26 16:52 | 32.11905 | -110.93603 | 2606 ft | 4 kts | 250° |
| 2026-04-26 16:52 | 32.11922 | -110.93575 | 2606 ft | 4 kts | 172° |
| 2026-04-26 16:52 | 32.11930 | -110.93579 | 2605 ft | 1 kts | 139° |
| 2026-04-26 16:53 | 32.11931 | -110.93580 | 2605 ft | 0 kts | 139° |
| 2026-04-26 16:54 | 32.11930 | -110.93579 | 2605 ft | 1 kts | 139° |
| 2026-04-26 16:54 | 32.11924 | -110.93573 | 2606 ft | 2 kts | 139° |
| 2026-04-26 16:55 | 32.11911 | -110.93559 | 2606 ft | 5 kts | 140° |
| 2026-04-26 16:55 | 32.11859 | -110.93547 | 2607 ft | 12 kts | 191° |
| 2026-04-26 16:55 | 32.11795 | -110.93615 | 2606 ft | 13 kts | 229° |
| 2026-04-26 16:55 | 32.11744 | -110.93690 | 2604 ft | 9 kts | 282° |
| 2026-04-26 16:56 | 32.11713 | -110.93812 | 2604 ft | 9 kts | 157° |
| 2026-04-26 16:56 | 32.11667 | -110.93761 | 2605 ft | 9 kts | 133° |
| 2026-04-26 16:56 | 32.11621 | -110.93705 | 2606 ft | 12 kts | 134° |
| 2026-04-26 16:57 | 32.11542 | -110.93610 | 2606 ft | 20 kts | 135° |
| 2026-04-26 16:57 | 32.11445 | -110.93499 | 2610 ft | 19 kts | 135° |
| 2026-04-26 16:57 | 32.11252 | -110.93273 | 2609 ft | 21 kts | 135° |
| 2026-04-26 16:58 | 32.11145 | -110.93147 | 2607 ft | 23 kts | 135° |
| 2026-04-26 16:58 | 32.11066 | -110.93054 | 2606 ft | 24 kts | 135° |
| 2026-04-26 16:58 | 32.10855 | -110.92851 | 2607 ft | 0 kts | 184° |
| 2026-04-26 16:59 | 32.10845 | -110.92852 | 2607 ft | 4 kts | 189° |
| 2026-04-26 16:59 | 32.10813 | -110.93009 | 2606 ft | 26 kts | 315° |
| 2026-04-26 17:00 | 32.11713 | -110.94067 | 2606 ft | 146 kts | 315° |
| 2026-04-26 17:00 | 32.13240 | -110.95899 | 3688 ft | 158 kts | 310° |
| 2026-04-26 17:00 | 32.14039 | -110.96821 | 4246 ft | 163 kts | 311° |
| 2026-04-26 17:01 | 32.14913 | -110.97784 | 4619 ft | 182 kts | 310° |
| 2026-04-26 17:01 | 32.15833 | -110.98912 | 5045 ft | 199 kts | 309° |
| 2026-04-26 17:01 | 32.16835 | -111.00145 | 5443 ft | 219 kts | 312° |
| 2026-04-26 17:01 | 32.17981 | -111.01487 | 5905 ft | 242 kts | 312° |
| 2026-04-26 17:02 | 32.19243 | -111.02939 | 6400 ft | 263 kts | 311° |
| 2026-04-26 17:02 | 32.20698 | -111.04325 | 7138 ft | 278 kts | 329° |
| 2026-04-26 17:02 | 32.22607 | -111.04904 | 7971 ft | 294 kts | 356° |
| 2026-04-26 17:02 | 32.24631 | -111.04350 | 8814 ft | 310 kts | 26° |
| 2026-04-26 17:03 | 32.26377 | -111.02798 | 9679 ft | 318 kts | 39° |
| 2026-04-26 17:03 | 32.28014 | -111.00964 | 10258 ft | 336 kts | 49° |
| 2026-04-26 17:03 | 32.29371 | -110.98602 | 10595 ft | 359 kts | 64° |
| 2026-04-26 17:03 | 32.30287 | -110.95784 | 11075 ft | 373 kts | 78° |
| 2026-04-26 17:04 | 32.30678 | -110.92731 | 11751 ft | 379 kts | 89° |
| 2026-04-26 17:04 | 32.30898 | -110.89596 | 12480 ft | 387 kts | 89° |
| 2026-04-26 17:04 | 32.31125 | -110.86393 | 13197 ft | 395 kts | 89° |
| 2026-04-26 17:04 | 32.31358 | -110.83127 | 13888 ft | 402 kts | 89° |
| 2026-04-26 17:05 | 32.31594 | -110.79803 | 14532 ft | 409 kts | 89° |
| 2026-04-26 17:05 | 32.31831 | -110.76422 | 15160 ft | 416 kts | 89° |
| 2026-04-26 17:05 | 32.32069 | -110.73034 | 15816 ft | 422 kts | 89° |
| 2026-04-26 17:05 | 32.32313 | -110.69554 | 16472 ft | 427 kts | 89° |
| 2026-04-26 17:06 | 32.32562 | -110.65984 | 17108 ft | 433 kts | 89° |
| 2026-04-26 17:06 | 32.32808 | -110.62461 | 17718 ft | 439 kts | 89° |
| 2026-04-26 17:06 | 32.33039 | -110.58843 | 18304 ft | 443 kts | 92° |
| 2026-04-26 17:06 | 32.32964 | -110.55199 | 18866 ft | 444 kts | 98° |
| 2026-04-26 17:07 | 32.32799 | -110.51521 | 19416 ft | 449 kts | 98° |
| 2026-04-26 17:07 | 32.32636 | -110.47813 | 19967 ft | 454 kts | 98° |
| 2026-04-26 17:07 | 32.32474 | -110.44059 | 20488 ft | 459 kts | 98° |
| 2026-04-26 17:07 | 32.32313 | -110.40271 | 21038 ft | 464 kts | 98° |
| 2026-04-26 17:08 | 32.32151 | -110.36448 | 21603 ft | 469 kts | 98° |
| 2026-04-26 17:08 | 32.31985 | -110.32575 | 22133 ft | 473 kts | 98° |
| 2026-04-26 17:08 | 32.31818 | -110.28669 | 22684 ft | 478 kts | 98° |
| 2026-04-26 17:08 | 32.31647 | -110.24719 | 23219 ft | 483 kts | 98° |
| 2026-04-26 17:09 | 32.31473 | -110.20734 | 23646 ft | 487 kts | 98° |
| 2026-04-26 17:09 | 32.31354 | -110.18081 | 23928 ft | 489 kts | 98° |
| 2026-04-26 17:09 | 32.31109 | -110.12676 | 24537 ft | 494 kts | 98° |
| 2026-04-26 17:09 | 32.30926 | -110.08609 | 24974 ft | 497 kts | 98° |
| 2026-04-26 17:10 | 32.30741 | -110.04510 | 25381 ft | 499 kts | 98° |
| 2026-04-26 17:10 | 32.30557 | -110.00408 | 25806 ft | 502 kts | 98° |
| 2026-04-26 17:10 | 32.30368 | -109.96332 | 26229 ft | 504 kts | 98° |
| 2026-04-26 17:10 | 32.30173 | -109.92177 | 26627 ft | 507 kts | 98° |
| 2026-04-26 17:11 | 32.29978 | -109.88012 | 27044 ft | 510 kts | 98° |
| 2026-04-26 17:11 | 32.29784 | -109.83811 | 27458 ft | 513 kts | 98° |
| 2026-04-26 17:11 | 32.29587 | -109.79591 | 27861 ft | 516 kts | 98° |
| 2026-04-26 17:11 | 32.29382 | -109.75342 | 28265 ft | 519 kts | 98° |
| 2026-04-26 17:12 | 32.28958 | -109.66773 | 29060 ft | 525 kts | 98° |
| 2026-04-26 17:12 | 32.28742 | -109.62455 | 29411 ft | 528 kts | 98° |
| 2026-04-26 17:13 | 32.28310 | -109.53747 | 30115 ft | 534 kts | 98° |
| 2026-04-26 17:13 | 32.28092 | -109.49352 | 30413 ft | 537 kts | 98° |
| 2026-04-26 17:13 | 32.27648 | -109.40503 | 31009 ft | 541 kts | 98° |
| 2026-04-26 17:14 | 32.27669 | -109.36041 | 31324 ft | 547 kts | 88° |
| 2026-04-26 17:14 | 32.29384 | -109.27313 | 32087 ft | 552 kts | 68° |
| 2026-04-26 17:14 | 32.31057 | -109.23231 | 32451 ft | 552 kts | 57° |
| 2026-04-26 17:15 | 32.35785 | -109.16200 | 33213 ft | 543 kts | 38° |
| 2026-04-26 17:15 | 32.38513 | -109.13090 | 33634 ft | 543 kts | 38° |
| 2026-04-26 17:15 | 32.41233 | -109.09980 | 33973 ft | 545 kts | 39° |
| 2026-04-26 17:16 | 32.43961 | -109.06857 | 34282 ft | 546 kts | 39° |
| 2026-04-26 17:16 | 32.46687 | -109.03729 | 34623 ft | 546 kts | 39° |
| 2026-04-26 17:16 | 32.49418 | -109.00595 | 34996 ft | 546 kts | 38° |
| 2026-04-26 17:16 | 32.52145 | -108.97464 | 35316 ft | 547 kts | 38° |
| 2026-04-26 17:17 | 32.54876 | -108.94324 | 35634 ft | 547 kts | 38° |
| 2026-04-26 17:17 | 32.57609 | -108.91177 | 35954 ft | 547 kts | 38° |
| 2026-04-26 17:17 | 32.60338 | -108.88031 | 36266 ft | 548 kts | 38° |
| 2026-04-26 17:17 | 32.63075 | -108.84880 | 36556 ft | 548 kts | 38° |
| 2026-04-26 17:18 | 32.65809 | -108.81732 | 36882 ft | 548 kts | 38° |
| 2026-04-26 17:18 | 32.68540 | -108.78584 | 37195 ft | 548 kts | 38° |
| 2026-04-26 17:18 | 32.71275 | -108.75423 | 37485 ft | 548 kts | 38° |
| 2026-04-26 17:18 | 32.74002 | -108.72264 | 37724 ft | 549 kts | 38° |
| 2026-04-26 17:19 | 32.79459 | -108.65925 | 37838 ft | 548 kts | 38° |
| 2026-04-26 17:19 | 32.84903 | -108.59599 | 37780 ft | 547 kts | 38° |
| 2026-04-26 17:20 | 32.88551 | -108.55373 | 37784 ft | 547 kts | 38° |
| 2026-04-26 17:20 | 32.95803 | -108.46951 | 37785 ft | 547 kts | 38° |
| 2026-04-26 17:21 | 33.01233 | -108.40608 | 37771 ft | 547 kts | 38° |
| 2026-04-26 17:21 | 33.06659 | -108.34255 | 37779 ft | 547 kts | 38° |
| 2026-04-26 17:22 | 33.12099 | -108.27888 | 37795 ft | 546 kts | 38° |
| 2026-04-26 17:22 | 33.17471 | -108.21588 | 37811 ft | 544 kts | 38° |
| 2026-04-26 17:23 | 33.22916 | -108.15212 | 37815 ft | 543 kts | 36° |
| 2026-04-26 17:23 | 33.25916 | -108.12633 | 37814 ft | 522 kts | 18° |
| 2026-04-26 17:23 | 33.29160 | -108.11047 | 37805 ft | 502 kts | 5° |
| 2026-04-26 17:24 | 33.32509 | -108.10189 | 37801 ft | 485 kts | 355° |
| 2026-04-26 17:24 | 33.35830 | -108.09906 | 37796 ft | 470 kts | 346° |
| 2026-04-26 17:24 | 33.39035 | -108.10175 | 37808 ft | 454 kts | 338° |
| 2026-04-26 17:24 | 33.42055 | -108.11005 | 37803 ft | 437 kts | 329° |
| 2026-04-26 17:25 | 33.44828 | -108.12354 | 37798 ft | 421 kts | 320° |
| 2026-04-26 17:25 | 33.47432 | -108.13954 | 37795 ft | 420 kts | 321° |
| 2026-04-26 17:25 | 33.52652 | -108.17143 | 37783 ft | 421 kts | 321° |
| 2026-04-26 17:26 | 33.57875 | -108.20312 | 37768 ft | 421 kts | 321° |
| 2026-04-26 17:26 | 33.63096 | -108.23487 | 37802 ft | 420 kts | 320° |
| 2026-04-26 17:27 | 33.65698 | -108.25075 | 37623 ft | 420 kts | 320° |
| 2026-04-26 17:27 | 33.68298 | -108.26659 | 37342 ft | 419 kts | 320° |
| 2026-04-26 17:27 | 33.70896 | -108.28242 | 37075 ft | 418 kts | 320° |
| 2026-04-26 17:27 | 33.73491 | -108.29824 | 36815 ft | 418 kts | 320° |
| 2026-04-26 17:28 | 33.76079 | -108.31405 | 36555 ft | 418 kts | 320° |
| 2026-04-26 17:28 | 33.78641 | -108.32974 | 36305 ft | 418 kts | 320° |
| 2026-04-26 17:28 | 33.81238 | -108.34568 | 36052 ft | 419 kts | 320° |
| 2026-04-26 17:28 | 33.83836 | -108.36161 | 35803 ft | 420 kts | 320° |
| 2026-04-26 17:29 | 33.86580 | -108.37526 | 35616 ft | 438 kts | 330° |
| 2026-04-26 17:29 | 33.87594 | -108.37849 | 35532 ft | 446 kts | 334° |
| 2026-04-26 17:29 | 33.92950 | -108.38102 | 35126 ft | 487 kts | 357° |
| 2026-04-26 17:29 | 33.96302 | -108.37033 | 34878 ft | 510 kts | 12° |
| 2026-04-26 17:30 | 33.99488 | -108.34960 | 34643 ft | 530 kts | 27° |
| 2026-04-26 17:30 | 34.02512 | -108.32383 | 34404 ft | 533 kts | 27° |
| 2026-04-26 17:30 | 34.05535 | -108.29780 | 34165 ft | 534 kts | 27° |
| 2026-04-26 17:30 | 34.08562 | -108.27164 | 33929 ft | 536 kts | 27° |
| 2026-04-26 17:31 | 34.11590 | -108.24547 | 33695 ft | 536 kts | 27° |
| 2026-04-26 17:31 | 34.14635 | -108.21922 | 33499 ft | 539 kts | 27° |
| 2026-04-26 17:31 | 34.17703 | -108.19285 | 33230 ft | 540 kts | 27° |
| 2026-04-26 17:31 | 34.20753 | -108.16658 | 32962 ft | 538 kts | 27° |
| 2026-04-26 17:32 | 34.23799 | -108.14032 | 32701 ft | 537 kts | 27° |
| 2026-04-26 17:32 | 34.26827 | -108.11417 | 32430 ft | 534 kts | 27° |
| 2026-04-26 17:32 | 34.29846 | -108.08810 | 32184 ft | 532 kts | 27° |
| 2026-04-26 17:32 | 34.31837 | -108.07092 | 31969 ft | 530 kts | 27° |
| 2026-04-26 17:33 | 34.34845 | -108.04499 | 31205 ft | 531 kts | 28° |
| 2026-04-26 17:33 | 34.37851 | -108.01902 | 30509 ft | 530 kts | 28° |
| 2026-04-26 17:33 | 34.40847 | -107.99302 | 29826 ft | 530 kts | 28° |
| 2026-04-26 17:34 | 34.46832 | -107.94100 | 28326 ft | 526 kts | 28° |
| 2026-04-26 17:34 | 34.49799 | -107.91522 | 27637 ft | 523 kts | 28° |
| 2026-04-26 17:34 | 34.52743 | -107.88964 | 26964 ft | 520 kts | 29° |
| 2026-04-26 17:34 | 34.55668 | -107.86420 | 26497 ft | 512 kts | 29° |
| 2026-04-26 17:35 | 34.58538 | -107.83903 | 25937 ft | 509 kts | 31° |
| 2026-04-26 17:35 | 34.61198 | -107.81028 | 25366 ft | 513 kts | 42° |
| 2026-04-26 17:35 | 34.63412 | -107.77647 | 24987 ft | 509 kts | 54° |
| 2026-04-26 17:35 | 34.65143 | -107.73953 | 24721 ft | 497 kts | 62° |
| 2026-04-26 17:36 | 34.66742 | -107.70267 | 24228 ft | 490 kts | 62° |
| 2026-04-26 17:36 | 34.68319 | -107.66624 | 23715 ft | 485 kts | 61° |
| 2026-04-26 17:36 | 34.69882 | -107.63014 | 23158 ft | 481 kts | 62° |
| 2026-04-26 17:36 | 34.71432 | -107.59426 | 22567 ft | 476 kts | 62° |
| 2026-04-26 17:37 | 34.72957 | -107.55879 | 22012 ft | 471 kts | 62° |
| 2026-04-26 17:37 | 34.74462 | -107.52369 | 21461 ft | 466 kts | 62° |
| 2026-04-26 17:37 | 34.75929 | -107.48938 | 20916 ft | 461 kts | 62° |
| 2026-04-26 17:38 | 34.78869 | -107.42058 | 19811 ft | 450 kts | 62° |
| 2026-04-26 17:38 | 34.80301 | -107.38709 | 19298 ft | 444 kts | 63° |
| 2026-04-26 17:38 | 34.81693 | -107.35448 | 18861 ft | 437 kts | 63° |
| 2026-04-26 17:38 | 34.83086 | -107.32176 | 18375 ft | 432 kts | 63° |
| 2026-04-26 17:39 | 34.84462 | -107.28945 | 17777 ft | 430 kts | 63° |
| 2026-04-26 17:39 | 34.85826 | -107.25731 | 17292 ft | 423 kts | 63° |
| 2026-04-26 17:39 | 34.87154 | -107.22555 | 16735 ft | 418 kts | 64° |
| 2026-04-26 17:39 | 34.88447 | -107.19426 | 16436 ft | 407 kts | 64° |
| 2026-04-26 17:40 | 34.89594 | -107.16348 | 16274 ft | 392 kts | 73° |
| 2026-04-26 17:40 | 34.90094 | -107.14219 | 16063 ft | 383 kts | 81° |
| 2026-04-26 17:40 | 34.90612 | -107.10019 | 15524 ft | 375 kts | 86° |
| 2026-04-26 17:40 | 34.90974 | -107.06887 | 15099 ft | 371 kts | 86° |
| 2026-04-26 17:41 | 34.91336 | -107.03792 | 14662 ft | 366 kts | 86° |
| 2026-04-26 17:41 | 34.91701 | -107.00727 | 14220 ft | 362 kts | 86° |
| 2026-04-26 17:41 | 34.92066 | -106.97705 | 13791 ft | 358 kts | 86° |
| 2026-04-26 17:41 | 34.92427 | -106.94717 | 13369 ft | 353 kts | 86° |
| 2026-04-26 17:42 | 34.92778 | -106.91772 | 12890 ft | 350 kts | 86° |
| 2026-04-26 17:42 | 34.93122 | -106.88851 | 12396 ft | 346 kts | 86° |
| 2026-04-26 17:42 | 34.93462 | -106.85960 | 12040 ft | 343 kts | 85° |
| 2026-04-26 17:42 | 34.93800 | -106.83091 | 11536 ft | 341 kts | 85° |
| 2026-04-26 17:43 | 34.94133 | -106.80249 | 11075 ft | 336 kts | 86° |
| 2026-04-26 17:43 | 34.94462 | -106.77417 | 10389 ft | 340 kts | 85° |
| 2026-04-26 17:43 | 34.94789 | -106.74606 | 10163 ft | 327 kts | 85° |
| 2026-04-26 17:43 | 34.95106 | -106.71929 | 10035 ft | 311 kts | 86° |
| 2026-04-26 17:44 | 34.95286 | -106.69378 | 9833 ft | 296 kts | 93° |
| 2026-04-26 17:44 | 34.95372 | -106.66906 | 9501 ft | 288 kts | 93° |
| 2026-04-26 17:44 | 34.95458 | -106.64501 | 9205 ft | 279 kts | 93° |
| 2026-04-26 17:44 | 34.95519 | -106.62170 | 8922 ft | 269 kts | 94° |
| 2026-04-26 17:45 | 34.95562 | -106.59956 | 8650 ft | 254 kts | 95° |
| 2026-04-26 17:45 | 34.95636 | -106.57851 | 8381 ft | 248 kts | 87° |
| 2026-04-26 17:45 | 34.96118 | -106.55830 | 8091 ft | 251 kts | 67° |
| 2026-04-26 17:45 | 34.97074 | -106.54067 | 7788 ft | 249 kts | 48° |
| 2026-04-26 17:46 | 34.98407 | -106.52720 | 7458 ft | 248 kts | 29° |
| 2026-04-26 17:46 | 34.99882 | -106.51682 | 7159 ft | 241 kts | 27° |
| 2026-04-26 17:46 | 35.01359 | -106.50822 | 6869 ft | 227 kts | 6° |
| 2026-04-26 17:46 | 35.02808 | -106.50944 | 6599 ft | 200 kts | 330° |
| 2026-04-26 17:47 | 35.03828 | -106.51848 | 6351 ft | 162 kts | 297° |
| 2026-04-26 17:47 | 35.04188 | -106.52579 | 6189 ft | 144 kts | 274° |
| 2026-04-26 17:47 | 35.04370 | -106.54071 | 5967 ft | 134 kts | 261° |
| 2026-04-26 17:47 | 35.04413 | -106.55209 | 5776 ft | 133 kts | 256° |
| 2026-04-26 17:48 | 35.04408 | -106.56360 | 5550 ft | 137 kts | 257° |
| 2026-04-26 17:48 | 35.04396 | -106.57533 | 5384 ft | 139 kts | 261° |
| 2026-04-26 17:48 | 35.04410 | -106.58676 | 5320 ft | 119 kts | 259° |
| 2026-04-26 17:48 | 35.04381 | -106.59487 | 5320 ft | 71 kts | 276° |
| 2026-04-26 17:49 | 35.04412 | -106.59967 | 5314 ft | 51 kts | 273° |
| 2026-04-26 17:49 | 35.04502 | -106.60251 | 5317 ft | 32 kts | 299° |
| 2026-04-26 17:49 | 35.04573 | -106.60505 | 5321 ft | 32 kts | 270° |
| 2026-04-26 17:49 | 35.04570 | -106.60768 | 5322 ft | 30 kts | 270° |
| 2026-04-26 17:50 | 35.04569 | -106.60993 | 5321 ft | 2 kts | 270° |